createdAt,value
2019-02-21T00:02:02.026Z,100839.66
2019-02-21T00:04:28.287Z,100844.36
2019-02-21T00:06:54.467Z,100843.03
2019-02-21T00:09:20.770Z,100848.43
2019-02-21T00:11:46.918Z,100846.71
2019-02-21T00:14:13.329Z,100848.45
2019-02-21T00:16:39.475Z,100847.27
2019-02-21T00:19:05.652Z,100850.05
2019-02-21T00:21:31.820Z,100847.69
2019-02-21T00:23:58.048Z,100851.88
2019-02-21T00:26:24.203Z,100849.22
2019-02-21T00:28:50.392Z,100844.69
2019-02-21T00:31:16.548Z,100852.42
2019-02-21T00:33:42.733Z,100848.31
2019-02-21T00:36:08.943Z,100848.40
2019-02-21T00:38:35.114Z,100848.95
2019-02-21T00:41:01.274Z,100849.87
2019-02-21T00:43:27.504Z,100853.47
2019-02-21T00:45:53.732Z,100858.08
2019-02-21T00:48:19.862Z,100859.72
2019-02-21T00:50:46.048Z,100862.39
2019-02-21T00:53:12.196Z,100861.40
2019-02-21T00:55:38.420Z,100860.41
2019-02-21T00:58:04.576Z,100861.20
2019-02-21T01:00:30.760Z,100856.24
2019-02-21T01:02:56.921Z,100860.31
2019-02-21T01:05:23.095Z,100861.61
2019-02-21T01:07:49.250Z,100859.31
2019-02-21T01:10:15.713Z,100860.22
2019-02-21T01:12:41.971Z,100861.87
2019-02-21T01:15:08.639Z,100856.28
2019-02-21T01:17:34.801Z,100854.33
2019-02-21T01:20:01.090Z,100855.86
2019-02-21T01:22:27.342Z,100854.71
2019-02-21T01:24:53.541Z,100850.59
2019-02-21T01:27:19.743Z,100851.57
2019-02-21T01:29:45.918Z,100849.18
2019-02-21T01:32:12.091Z,100852.64
2019-02-21T01:34:38.266Z,100851.09
2019-02-21T01:37:04.449Z,100843.14
2019-02-21T01:39:30.620Z,100845.88
2019-02-21T01:41:56.801Z,100848.33
2019-02-21T01:44:23.060Z,100845.38
2019-02-21T01:46:49.222Z,100846.46
2019-02-21T01:49:15.427Z,100846.75
2019-02-21T01:51:41.575Z,100851.39
2019-02-21T01:54:07.766Z,100845.61
2019-02-21T01:56:34.012Z,100842.97
2019-02-21T01:59:00.200Z,100844.53
2019-02-21T02:01:26.349Z,100840.22
2019-02-21T02:03:52.510Z,100835.69
2019-02-21T02:06:19.180Z,100835.10
2019-02-21T02:08:45.849Z,100835.52
2019-02-21T02:11:12.266Z,100832.76
2019-02-21T02:13:47.458Z,100827.92
2019-02-21T02:16:13.649Z,100829.31
2019-02-21T02:18:40.163Z,100830.58
2019-02-21T02:21:06.625Z,100842.66
2019-02-21T02:23:32.793Z,100834.52
2019-02-21T02:25:59.005Z,100832.45
2019-02-21T02:28:25.147Z,100833.02
2019-02-21T02:30:51.344Z,100825.64
2019-02-21T02:33:17.488Z,100824.88
2019-02-21T02:35:43.685Z,100825.64
2019-02-21T02:38:09.931Z,100827.20
2019-02-21T02:40:36.129Z,100821.98
2019-02-21T02:43:02.303Z,100827.41
2019-02-21T02:45:28.575Z,100823.45
2019-02-21T02:47:54.745Z,100824.36
2019-02-21T02:50:20.924Z,100815.71
2019-02-21T02:52:47.111Z,100814.41
2019-02-21T02:55:13.299Z,100813.75
2019-02-21T02:57:39.590Z,100817.69
2019-02-21T03:00:12.937Z,100820.65
2019-02-21T03:02:39.111Z,100819.29
2019-02-21T03:05:05.421Z,100820.55
2019-02-21T03:07:31.582Z,100820.51
2019-02-21T03:09:57.758Z,100813.89
2019-02-21T03:12:23.968Z,100819.30
2019-02-21T03:14:50.141Z,100818.80
2019-02-21T03:17:16.654Z,100824.14
2019-02-21T03:19:42.817Z,100818.98
2019-02-21T03:22:09.254Z,100817.31
2019-02-21T03:24:35.415Z,100819.91
2019-02-21T03:27:01.592Z,100827.09
2019-02-21T03:29:27.744Z,100826.50
2019-02-21T03:31:55.851Z,100822.02
2019-02-21T03:34:22.071Z,100818.80
2019-02-21T03:36:48.256Z,100814.02
2019-02-21T03:39:14.841Z,100807.35
2019-02-21T03:41:41.010Z,100810.25
2019-02-21T03:44:07.180Z,100808.91
2019-02-21T03:46:33.360Z,100812.11
2019-02-21T03:48:59.529Z,100812.47
2019-02-21T03:51:25.757Z,100807.97
2019-02-21T03:53:51.969Z,100810.67
2019-02-21T03:56:21.020Z,100814.83
2019-02-21T03:58:47.165Z,100825.78
2019-02-21T04:01:15.814Z,100832.41
2019-02-21T04:03:42.053Z,100830.93
2019-02-21T04:06:08.241Z,100837.55
2019-02-21T04:08:34.448Z,100835.98
2019-02-21T04:11:04.523Z,100838.72
2019-02-21T04:13:30.735Z,100851.98
2019-02-21T04:15:56.916Z,100847.30
2019-02-21T04:18:23.072Z,100845.96
2019-02-21T04:20:49.601Z,100850.90
2019-02-21T04:23:15.772Z,100846.55
2019-02-21T04:25:41.933Z,100847.88
2019-02-21T04:28:08.117Z,100847.36
2019-02-21T04:30:34.273Z,100845.63
2019-02-21T04:33:07.131Z,100835.98
2019-02-21T04:35:33.290Z,100841.52
2019-02-21T04:37:59.794Z,100834.23
2019-02-21T04:40:26.244Z,100830.28
2019-02-21T04:42:52.440Z,100834.08
2019-02-21T04:45:18.590Z,100836.05
2019-02-21T04:47:44.805Z,100835.64
2019-02-21T04:50:10.970Z,100833.44
2019-02-21T04:52:37.172Z,100836.58
2019-02-21T04:55:04.783Z,100842.12
2019-02-21T04:57:31.068Z,100839.58
2019-02-21T04:59:57.239Z,100835.51
2019-02-21T05:02:28.931Z,100841.31
2019-02-21T05:04:51.494Z,100839.61
2019-02-21T05:07:17.989Z,100838.33
2019-02-21T05:09:44.136Z,100842.54
2019-02-21T05:12:10.315Z,100842.63
2019-02-21T05:14:36.460Z,100837.72
2019-02-21T05:17:02.649Z,100832.98
2019-02-21T05:19:28.835Z,100835.61
2019-02-21T05:21:55.136Z,100837.25
2019-02-21T05:24:21.308Z,100837.48
2019-02-21T05:27:01.541Z,100835.39
2019-02-21T05:29:27.729Z,100838.59
2019-02-21T05:32:13.790Z,100836.86
2019-02-21T05:34:44.944Z,100837.63
2019-02-21T05:37:25.621Z,100838.95
2019-02-21T05:40:10.462Z,100832.76
2019-02-21T05:42:41.483Z,100837.39
2019-02-21T05:45:10.983Z,100842.52
2019-02-21T05:47:42.183Z,100836.42
2019-02-21T05:50:15.905Z,100838.86
2019-02-21T05:52:49.770Z,100834.92
2019-02-21T05:55:17.825Z,100843.49
2019-02-21T05:58:02.445Z,100838.36
2019-02-21T06:00:33.489Z,100839.38
2019-02-21T06:03:01.703Z,100839.89
2019-02-21T06:05:35.684Z,100843.13
2019-02-21T06:08:07.129Z,100839.59
2019-02-21T06:10:38.299Z,100846.52
2019-02-21T06:13:09.119Z,100849.88
2019-02-21T06:15:37.199Z,100850.47
2019-02-21T06:18:08.239Z,100853.95
2019-02-21T06:20:36.284Z,100858.59
2019-02-21T06:23:04.375Z,100863.16
2019-02-21T06:25:38.124Z,100863.59
2019-02-21T06:28:12.221Z,100869.27
2019-02-21T06:30:43.452Z,100867.31
2019-02-21T06:33:09.725Z,100865.98
2019-02-21T06:35:35.864Z,100862.17
2019-02-21T06:38:02.034Z,100868.69
2019-02-21T06:40:28.203Z,100865.05
2019-02-21T06:42:54.371Z,100861.44
2019-02-21T06:45:20.855Z,100855.51
2019-02-21T06:47:47.020Z,100856.79
2019-02-21T06:50:14.536Z,100857.45
2019-02-21T06:52:40.890Z,100854.22
2019-02-21T06:55:07.124Z,100849.46
2019-02-21T06:57:33.286Z,100854.28
2019-02-21T06:59:59.510Z,100854.83
2019-02-21T07:02:28.038Z,100850.94
2019-02-21T07:07:20.385Z,100835.11
2019-02-21T07:09:46.579Z,100833.63
2019-02-21T07:12:12.766Z,100834.82
2019-02-21T07:14:38.969Z,100834.68
2019-02-21T07:17:05.150Z,100831.94
2019-02-21T07:19:31.416Z,100831.05
2019-02-21T07:21:57.560Z,100841.30
2019-02-21T07:24:24.323Z,100834.38
2019-02-21T07:26:50.480Z,100835.69
2019-02-21T07:29:16.660Z,100842.55
2019-02-21T07:31:42.820Z,100846.80
2019-02-21T07:34:08.999Z,100835.02
2019-02-21T07:36:35.149Z,100825.78
2019-02-21T07:39:13.657Z,100827.93
2019-02-21T07:41:29.707Z,100821.04
2019-02-21T07:43:55.928Z,100820.22
2019-02-21T07:46:22.098Z,100825.12
2019-02-21T07:48:48.312Z,100815.52
2019-02-21T07:51:14.498Z,100818.14
2019-02-21T07:53:40.710Z,100818.42
2019-02-21T07:56:06.918Z,100824.77
2019-02-21T07:58:33.100Z,100829.05
2019-02-21T08:00:59.260Z,100831.75
2019-02-21T08:03:30.310Z,100839.66
2019-02-21T08:05:53.874Z,100838.59
2019-02-21T08:08:21.063Z,100844.77
2019-02-21T08:10:47.250Z,100851.06
2019-02-21T08:13:13.694Z,100850.98
2019-02-21T08:15:39.894Z,100845.42
2019-02-21T08:18:06.035Z,100851.17
2019-02-21T08:20:34.727Z,100851.54
2019-02-21T08:23:02.860Z,100854.88
2019-02-21T08:25:28.385Z,100860.91
2019-02-21T08:27:55.223Z,100857.42
2019-02-21T08:30:21.663Z,100863.98
2019-02-21T08:33:01.540Z,100856.84
2019-02-21T08:35:28.285Z,100864.19
2019-02-21T08:37:54.443Z,100865.89
2019-02-21T08:40:20.678Z,100869.45
2019-02-21T08:42:46.828Z,100872.82
2019-02-21T08:45:13.022Z,100877.09
2019-02-21T08:47:39.180Z,100874.09
2019-02-21T08:50:05.587Z,100860.77
2019-02-21T08:52:31.743Z,100875.84
2019-02-21T08:55:00.464Z,100867.53
2019-02-21T08:57:26.032Z,100866.84
2019-02-21T08:59:52.204Z,100867.37
2019-02-21T09:02:18.382Z,100869.73
2019-02-21T09:04:44.567Z,100872.95
2019-02-21T09:07:10.826Z,100869.10
2019-02-21T09:09:37.009Z,100874.20
2019-02-21T09:12:05.554Z,100875.11
2019-02-21T09:14:31.269Z,100872.71
2019-02-21T09:16:57.449Z,100870.05
2019-02-21T09:19:23.776Z,100870.69
2019-02-21T09:21:49.931Z,100874.36
2019-02-21T09:24:35.148Z,100871.73
2019-02-21T09:26:44.218Z,100865.70
2019-02-21T09:29:10.385Z,100874.20
2019-02-21T09:31:36.582Z,100874.98
2019-02-21T09:34:02.739Z,100879.69
2019-02-21T09:36:28.940Z,100872.45
2019-02-21T09:38:55.101Z,100872.62
2019-02-21T09:41:21.307Z,100866.03
2019-02-21T09:43:47.485Z,100874.27
2019-02-21T09:46:13.657Z,100868.63
2019-02-21T09:48:39.859Z,100864.42
2019-02-21T09:51:06.042Z,100871.66
2019-02-21T09:53:32.215Z,100871.83
2019-02-21T09:55:58.412Z,100870.38
2019-02-21T09:58:24.582Z,100869.06
2019-02-21T10:00:50.766Z,100867.25
2019-02-21T10:03:17.276Z,100862.95
2019-02-21T10:05:43.475Z,100869.07
2019-02-21T10:08:09.614Z,100874.61
2019-02-21T10:10:35.853Z,100875.92
2019-02-21T10:13:02.007Z,100874.59
2019-02-21T10:15:28.204Z,100875.75
2019-02-21T10:17:54.379Z,100878.63
2019-02-21T10:20:21.178Z,100879.84
2019-02-21T10:22:47.381Z,100884.20
2019-02-21T10:25:17.624Z,100885.31
2019-02-21T10:27:43.774Z,100888.73
2019-02-21T10:30:14.056Z,100886.85
2019-02-21T10:32:40.327Z,100887.86
2019-02-21T10:35:06.788Z,100889.29
2019-02-21T10:37:32.976Z,100891.45
2019-02-21T10:39:59.165Z,100897.53
2019-02-21T10:42:25.363Z,100900.47
2019-02-21T10:44:51.574Z,100898.68
2019-02-21T10:47:17.730Z,100891.00
2019-02-21T10:49:44.111Z,100885.86
2019-02-21T10:52:10.327Z,100887.52
2019-02-21T10:54:36.468Z,100885.00
2019-02-21T10:57:02.684Z,100882.35
2019-02-21T10:59:28.837Z,100891.27
2019-02-21T11:01:55.012Z,100895.72
2019-02-21T11:04:21.168Z,100891.78
2019-02-21T11:06:47.374Z,100891.36
2019-02-21T11:09:19.150Z,100891.33
2019-02-21T11:11:45.352Z,100885.44
2019-02-21T11:14:11.503Z,100880.72
2019-02-21T11:16:37.711Z,100876.44
2019-02-21T11:19:03.889Z,100867.05
2019-02-21T11:21:30.067Z,100861.11
2019-02-21T11:23:56.253Z,100858.34
2019-02-21T11:26:22.473Z,100861.61
2019-02-21T11:28:48.605Z,100848.95
2019-02-21T11:31:14.813Z,100843.77
2019-02-21T11:33:41.265Z,100838.38
2019-02-21T11:36:07.485Z,100834.23
2019-02-21T11:38:33.654Z,100825.55
2019-02-21T11:41:02.029Z,100827.73
2019-02-21T11:43:28.259Z,100817.31
2019-02-21T11:45:57.309Z,100815.52
2019-02-21T11:48:22.609Z,100811.70
2019-02-21T11:50:48.845Z,100807.99
2019-02-21T11:53:15.057Z,100811.63
2019-02-21T11:55:41.210Z,100809.61
2019-02-21T11:58:07.669Z,100815.84
2019-02-21T12:00:34.019Z,100815.15
2019-02-21T12:03:00.396Z,100818.19
2019-02-21T12:05:32.342Z,100826.20
2019-02-21T12:07:54.657Z,100816.98
2019-02-21T12:10:21.014Z,100810.54
2019-02-21T12:12:47.216Z,100818.14
2019-02-21T12:15:15.624Z,100800.16
2019-02-21T12:17:42.995Z,100807.59
2019-02-21T12:20:13.885Z,100800.32
2019-02-21T12:22:40.068Z,100799.63
2019-02-21T12:25:09.853Z,100795.56
2019-02-21T12:27:36.049Z,100791.12
2019-02-21T12:30:05.622Z,100790.05
2019-02-21T12:32:31.866Z,100790.23
2019-02-21T12:34:58.076Z,100789.02
2019-02-21T12:37:24.252Z,100781.33
2019-02-21T12:39:50.401Z,100784.59
2019-02-21T12:42:16.586Z,100766.95
2019-02-21T12:44:42.733Z,100768.81
2019-02-21T12:47:10.472Z,100768.30
2019-02-21T12:49:36.678Z,100744.16
2019-02-21T12:52:04.876Z,100760.47
2019-02-21T12:54:31.037Z,100765.92
2019-02-21T12:57:03.434Z,100762.91
2019-02-21T12:59:29.596Z,100763.33
2019-02-21T13:01:55.801Z,100763.55
2019-02-21T13:04:22.003Z,100765.20
2019-02-21T13:06:48.175Z,100768.36
2019-02-21T13:09:14.402Z,100762.27
2019-02-21T13:11:40.558Z,100759.70
2019-02-21T13:14:06.738Z,100761.33
2019-02-21T13:16:32.904Z,100758.44
2019-02-21T13:18:59.084Z,100753.05
2019-02-21T13:21:25.292Z,100752.30
2019-02-21T13:23:51.535Z,100751.09
2019-02-21T13:26:17.995Z,100752.37
2019-02-21T13:28:44.193Z,100756.65
2019-02-21T13:31:10.380Z,100751.12
2019-02-21T13:33:36.563Z,100748.97
2019-02-21T13:36:03.650Z,100751.39
2019-02-21T13:38:29.833Z,100745.78
2019-02-21T13:40:55.996Z,100742.34
2019-02-21T13:43:22.226Z,100739.55
2019-02-21T13:45:48.383Z,100737.44
2019-02-21T13:48:14.601Z,100730.14
2019-02-21T13:50:40.724Z,100727.27
2019-02-21T13:53:07.068Z,100733.16
2019-02-21T13:55:33.587Z,100736.44
2019-02-21T13:57:59.785Z,100730.38
2019-02-21T14:00:25.955Z,100735.66
2019-02-21T14:02:52.158Z,100736.39
2019-02-21T14:05:18.321Z,100733.36
2019-02-21T14:07:44.868Z,100735.52
2019-02-21T14:10:12.430Z,100742.23
2019-02-21T14:12:38.661Z,100734.02
2019-02-21T14:15:16.578Z,100727.66
2019-02-21T14:17:42.745Z,100723.35
2019-02-21T14:20:08.894Z,100747.87
2019-02-21T14:22:35.128Z,100754.12
2019-02-21T14:25:01.308Z,100747.44
2019-02-21T14:27:27.440Z,100749.72
2019-02-21T14:29:53.658Z,100760.99
2019-02-21T14:32:19.811Z,100759.00
2019-02-21T14:34:45.992Z,100764.81
2019-02-21T14:37:12.149Z,100754.73
2019-02-21T14:39:38.344Z,100761.88
2019-02-21T14:42:04.623Z,100758.89
2019-02-21T14:44:30.979Z,100754.03
2019-02-21T14:46:57.135Z,100751.38
2019-02-21T14:49:25.610Z,100757.30
2019-02-21T14:51:51.461Z,100746.63
2019-02-21T14:54:17.662Z,100755.37
2019-02-21T14:56:43.818Z,100752.97
2019-02-21T14:59:10.439Z,100753.83
2019-02-21T15:01:36.607Z,100753.41
2019-02-21T15:04:04.340Z,100759.89
2019-02-21T15:06:30.471Z,100754.72
2019-02-21T15:08:56.662Z,100754.90
2019-02-21T15:11:22.828Z,100745.73
2019-02-21T15:13:49.013Z,100740.33
2019-02-21T15:16:15.183Z,100741.44
2019-02-21T15:18:41.366Z,100746.02
2019-02-21T15:21:07.532Z,100742.77
2019-02-21T15:23:33.720Z,100741.77
2019-02-21T15:25:59.891Z,100744.22
2019-02-21T15:28:26.102Z,100745.98
2019-02-21T15:30:52.243Z,100756.03
2019-02-21T15:33:18.428Z,100756.44
2019-02-21T15:35:47.361Z,100758.70
2019-02-21T15:38:20.023Z,100765.45
2019-02-21T15:40:43.395Z,100763.95
2019-02-21T15:43:09.695Z,100766.59
2019-02-21T15:45:35.866Z,100756.11
2019-02-21T15:48:02.177Z,100762.17
2019-02-21T15:50:28.418Z,100759.54
2019-02-21T15:52:55.495Z,100755.84
2019-02-21T15:55:21.979Z,100758.64
2019-02-21T15:57:48.151Z,100761.56
2019-02-21T16:00:22.487Z,100757.81
2019-02-21T16:02:48.692Z,100755.72
2019-02-21T16:05:15.339Z,100762.23
2019-02-21T16:07:41.607Z,100759.98
2019-02-21T16:10:15.629Z,100766.88
2019-02-21T16:12:42.277Z,100766.32
2019-02-21T16:15:16.496Z,100767.80
2019-02-21T16:17:40.266Z,100763.83
2019-02-21T16:20:14.139Z,100768.19
2019-02-21T16:22:41.217Z,100768.63
2019-02-21T16:25:26.866Z,100765.98
2019-02-21T16:27:55.203Z,100773.78
2019-02-21T16:30:22.122Z,100769.59
2019-02-21T16:32:48.523Z,100771.19
2019-02-21T16:35:14.989Z,100774.16
2019-02-21T16:37:41.157Z,100779.19
2019-02-21T16:40:12.585Z,100778.17
2019-02-21T16:42:39.175Z,100774.75
2019-02-21T16:45:12.305Z,100774.91
2019-02-21T16:47:38.502Z,100771.20
2019-02-21T16:50:09.303Z,100779.98
2019-02-21T16:52:36.839Z,100779.76
2019-02-21T16:55:08.861Z,100783.01
2019-02-21T16:57:35.227Z,100787.43
2019-02-21T17:00:01.405Z,100782.79
2019-02-21T17:02:27.569Z,100785.05
2019-02-21T17:04:55.735Z,100789.91
2019-02-21T17:07:22.000Z,100793.05
2019-02-21T17:09:48.379Z,100791.51
2019-02-21T17:12:14.590Z,100792.87
2019-02-21T17:14:43.225Z,100787.87
2019-02-21T17:17:09.573Z,100786.05
2019-02-21T17:19:35.782Z,100787.20
2019-02-21T17:22:01.987Z,100792.10
2019-02-21T17:24:28.682Z,100790.56
2019-02-21T17:26:54.824Z,100792.42
2019-02-21T17:29:21.106Z,100798.92
2019-02-21T17:31:47.379Z,100801.16
2019-02-21T17:34:13.961Z,100797.07
2019-02-21T17:36:40.582Z,100797.16
2019-02-21T17:39:07.419Z,100795.22
2019-02-21T17:41:33.619Z,100800.11
2019-02-21T17:43:59.878Z,100801.11
2019-02-21T17:46:26.126Z,100801.81
2019-02-21T17:48:52.299Z,100803.59
2019-02-21T17:51:18.478Z,100806.74
2019-02-21T17:53:44.996Z,100810.37
2019-02-21T17:56:11.197Z,100813.78
2019-02-21T17:58:37.404Z,100806.44
2019-02-21T18:01:04.687Z,100813.42
2019-02-21T18:03:30.862Z,100808.38
2019-02-21T18:05:57.102Z,100805.83
2019-02-21T18:08:25.826Z,100814.03
2019-02-21T18:10:52.033Z,100801.34
2019-02-21T18:13:18.179Z,100802.26
2019-02-21T18:15:44.688Z,100807.49
2019-02-21T18:18:10.860Z,100801.66
2019-02-21T18:20:37.068Z,100797.68
2019-02-21T18:23:03.500Z,100800.64
2019-02-21T18:25:44.010Z,100796.45
2019-02-21T18:28:10.585Z,100796.05
2019-02-21T18:30:36.998Z,100793.73
2019-02-21T18:33:03.710Z,100798.30
2019-02-21T18:35:29.879Z,100805.42
2019-02-21T18:37:56.180Z,100807.39
2019-02-21T18:40:25.507Z,100813.66
2019-02-21T18:42:53.761Z,100815.31
2019-02-21T18:45:20.023Z,100819.14
2019-02-21T18:47:46.563Z,100811.67
2019-02-21T18:50:15.023Z,100811.29
2019-02-21T18:52:41.869Z,100813.63
2019-02-21T18:55:09.131Z,100809.92
2019-02-21T18:57:35.432Z,100803.51
2019-02-21T19:00:05.790Z,100805.24
2019-02-21T19:02:31.948Z,100799.80
2019-02-21T19:04:58.359Z,100794.42
2019-02-21T19:07:24.562Z,100797.67
2019-02-21T19:09:50.734Z,100794.62
2019-02-21T19:12:16.915Z,100797.13
2019-02-21T19:14:43.857Z,100800.69
2019-02-21T19:17:10.094Z,100795.88
2019-02-21T19:19:36.347Z,100798.73
2019-02-21T19:22:02.766Z,100793.85
2019-02-21T19:24:29.102Z,100793.95
2019-02-21T19:26:55.547Z,100792.57
2019-02-21T19:29:21.843Z,100797.83
2019-02-21T19:31:48.244Z,100784.50
2019-02-21T19:34:14.457Z,100781.50
2019-02-21T19:36:40.818Z,100783.44
2019-02-21T19:39:07.572Z,100770.29
2019-02-21T19:41:33.960Z,100766.91
2019-02-21T19:44:08.466Z,100775.28
2019-02-21T19:46:28.540Z,100764.38
2019-02-21T19:48:55.018Z,100771.08
2019-02-21T19:51:21.625Z,100769.92
2019-02-21T19:53:47.930Z,100765.77
2019-02-21T19:56:14.400Z,100772.80
2019-02-21T19:58:40.766Z,100780.99
2019-02-21T20:01:07.035Z,100785.73
2019-02-21T20:03:33.324Z,100773.81
2019-02-21T20:05:59.514Z,100779.05
2019-02-21T20:08:26.007Z,100785.14
2019-02-21T20:10:52.528Z,100790.18
2019-02-21T20:13:18.950Z,100787.20
2019-02-21T20:15:45.150Z,100781.20
2019-02-21T20:18:14.403Z,100782.63
2019-02-21T20:20:40.709Z,100784.20
2019-02-21T20:23:06.923Z,100786.19
2019-02-21T20:25:33.591Z,100781.88
2019-02-21T20:27:59.801Z,100778.42
2019-02-21T20:30:26.104Z,100783.47
2019-02-21T20:32:52.496Z,100787.33
2019-02-21T20:35:18.827Z,100778.07
2019-02-21T20:37:45.246Z,100779.98
2019-02-21T20:40:11.934Z,100767.55
2019-02-21T20:42:38.537Z,100778.82
2019-02-21T20:45:10.700Z,100779.11
2019-02-21T20:47:37.007Z,100778.77
2019-02-21T20:50:06.575Z,100775.38
2019-02-21T20:52:33.245Z,100774.92
2019-02-21T20:54:59.416Z,100780.05
2019-02-21T20:57:25.912Z,100781.70
2019-02-21T20:59:52.081Z,100785.34
2019-02-21T21:02:18.379Z,100780.48
2019-02-21T21:04:44.548Z,100786.88
2019-02-21T21:07:10.735Z,100787.34
2019-02-21T21:09:37.305Z,100779.99
2019-02-21T21:12:03.486Z,100785.20
2019-02-21T21:14:30.428Z,100769.89
2019-02-21T21:16:56.670Z,100789.55
2019-02-21T21:19:23.079Z,100786.76
2019-02-21T21:21:49.249Z,100788.49
2019-02-21T21:24:15.396Z,100791.70
2019-02-21T21:26:41.588Z,100780.90
2019-02-21T21:29:07.745Z,100786.28
2019-02-21T21:31:33.992Z,100781.14
2019-02-21T21:34:00.202Z,100787.34
2019-02-21T21:36:26.392Z,100783.48
2019-02-21T21:38:54.285Z,100789.84
2019-02-21T21:41:21.470Z,100787.05
2019-02-21T21:43:47.660Z,100780.11
2019-02-21T21:46:13.835Z,100788.18
2019-02-21T21:48:40.093Z,100787.47
2019-02-21T21:51:06.276Z,100791.42
2019-02-21T21:53:32.469Z,100791.41
2019-02-21T21:55:58.650Z,100792.51
2019-02-21T21:58:24.829Z,100783.33
2019-02-21T22:00:51.037Z,100778.78
2019-02-21T22:03:17.213Z,100784.91
2019-02-21T22:05:43.442Z,100777.75
2019-02-21T22:08:09.584Z,100786.74
2019-02-21T22:10:35.763Z,100784.84
2019-02-21T22:13:10.038Z,100770.73
2019-02-21T22:15:36.215Z,100775.27
2019-02-21T22:18:02.609Z,100782.73
2019-02-21T22:20:28.793Z,100784.80
2019-02-21T22:22:54.951Z,100787.54
2019-02-21T22:25:21.155Z,100794.56
2019-02-21T22:27:47.774Z,100786.32
2019-02-21T22:30:16.646Z,100780.11
2019-02-21T22:32:42.854Z,100786.13
2019-02-21T22:35:09.206Z,100793.33
2019-02-21T22:37:35.669Z,100788.53
2019-02-21T22:40:05.017Z,100787.06
2019-02-21T22:42:31.198Z,100788.21
2019-02-21T22:44:57.353Z,100796.37
2019-02-21T22:47:23.585Z,100799.44
2019-02-21T22:49:49.716Z,100789.22
2019-02-21T22:52:17.119Z,100803.29
2019-02-21T22:54:43.449Z,100806.45
2019-02-21T22:57:09.697Z,100797.44
2019-02-21T22:59:35.973Z,100798.94
2019-02-21T23:02:02.372Z,100810.70
2019-02-21T23:04:33.332Z,100810.88
2019-02-21T23:07:25.961Z,100808.08
2019-02-21T23:09:52.114Z,100811.20
2019-02-21T23:12:18.302Z,100802.82
2019-02-21T23:14:44.459Z,100818.46
2019-02-21T23:17:10.810Z,100812.03
2019-02-21T23:19:37.376Z,100824.24
2019-02-21T23:22:03.834Z,100818.13
2019-02-21T23:24:29.970Z,100818.45
2019-02-21T23:26:56.262Z,100818.28
2019-02-21T23:29:22.451Z,100823.43
2019-02-21T23:31:48.654Z,100820.03
2019-02-21T23:34:16.751Z,100823.69
2019-02-21T23:36:49.098Z,100817.95
2019-02-21T23:39:26.444Z,100817.38
2019-02-21T23:41:52.871Z,100816.82
2019-02-21T23:44:19.046Z,100821.46
2019-02-21T23:46:46.129Z,100826.20
2019-02-21T23:49:13.952Z,100821.45
2019-02-21T23:51:40.337Z,100813.42
2019-02-21T23:54:06.587Z,100809.14
2019-02-21T23:56:32.754Z,100803.88
2019-02-21T23:58:58.947Z,100803.37
